Laureles, Texas
Current Conditions -  °F | °C
As of 4:52 PM on Thursday 20 Nov 2014 (Local Time) from KHRL Reporting Station
Light Rain Light Rain  
Wind Chill: 70°   Ceiling: 2600
Heat Index: 70°   Visibility: 9mi
Dew Point: 68°   Wind: 9mph
Humidity: 93%   Direction: 150°SSE
Pressure: 30.01"   Gusts: NA
Location:  26.1784°N, 97.6678°W
Report Text: KHRL 202252Z 15008KT 9SM -RA SCT016 BKN026 OVC034 21/20 A3001 RMK AO2 RAB13 SLP162 P0000 T02110200
Loading
Personal Weather Stations






























Interactive Weather Map New forecast layout! Learn more

10-Day Weather Forecast

Advertisements
Track Severe Weather on mobile